createdAt,value
2017-07-09T00:01:00.372Z,975.2
2017-07-09T00:02:02.592Z,975.2
2017-07-09T00:03:04.906Z,975.2
2017-07-09T00:04:07.026Z,975.2
2017-07-09T00:05:09.308Z,975.2
2017-07-09T00:06:11.672Z,975.2
2017-07-09T00:07:14.077Z,975.2
2017-07-09T00:08:16.217Z,975.2
2017-07-09T00:09:18.434Z,975.1
2017-07-09T00:10:20.722Z,975.2
2017-07-09T00:11:23.019Z,975.2
2017-07-09T00:12:25.299Z,975.1
2017-07-09T00:13:27.533Z,975.2
2017-07-09T00:14:29.875Z,975.2
2017-07-09T00:15:32.136Z,975.1
2017-07-09T00:16:34.430Z,975.2
2017-07-09T00:17:36.772Z,975.1
2017-07-09T00:18:38.963Z,975.1
2017-07-09T00:19:41.193Z,975.1
2017-07-09T00:20:43.481Z,975.2
2017-07-09T00:21:45.760Z,975.2
2017-07-09T00:22:48.096Z,975.2
2017-07-09T00:23:50.365Z,975.2
2017-07-09T00:24:52.611Z,975.2
2017-07-09T00:25:54.903Z,975.2
2017-07-09T00:26:57.197Z,975.1
2017-07-09T00:27:59.354Z,975.2
2017-07-09T00:29:01.644Z,975.1
2017-07-09T00:30:03.906Z,975.1
2017-07-09T00:31:06.225Z,975.1
2017-07-09T00:32:08.458Z,975.1
2017-07-09T00:33:10.645Z,975.1
2017-07-09T00:34:12.888Z,975.1
2017-07-09T00:35:14.998Z,975.1
2017-07-09T00:36:17.233Z,975.1
2017-07-09T00:37:19.477Z,975.1
2017-07-09T00:38:21.774Z,975.0
2017-07-09T00:39:24.304Z,975.0
2017-07-09T00:40:26.462Z,975.0
2017-07-09T00:41:28.878Z,975.0
2017-07-09T00:42:31.207Z,975.0
2017-07-09T00:43:33.454Z,975.0
2017-07-09T00:44:35.827Z,975.0
2017-07-09T00:45:37.951Z,974.9
2017-07-09T00:46:40.178Z,975.0
2017-07-09T00:47:42.511Z,975.0
2017-07-09T00:48:44.832Z,975.0
2017-07-09T00:49:47.047Z,975.0
2017-07-09T00:50:49.339Z,975.0
2017-07-09T00:51:51.725Z,974.9
2017-07-09T00:52:54.035Z,975.0
2017-07-09T00:53:56.301Z,975.0
2017-07-09T00:54:58.567Z,975.0
2017-07-09T00:56:00.804Z,975.1
2017-07-09T00:57:02.983Z,975.0
2017-07-09T00:58:05.300Z,975.0
2017-07-09T00:59:07.546Z,975.0
2017-07-09T01:00:09.889Z,975.0
2017-07-09T01:01:12.132Z,975.0
2017-07-09T01:02:14.396Z,975.0
2017-07-09T01:03:16.749Z,975.0
2017-07-09T01:04:19.249Z,975.0
2017-07-09T01:05:21.515Z,975.0
2017-07-09T01:06:23.813Z,975.0
2017-07-09T01:07:26.108Z,974.9
2017-07-09T01:08:28.367Z,974.9
2017-07-09T01:09:30.661Z,974.9
2017-07-09T01:10:32.945Z,974.9
2017-07-09T01:11:35.175Z,974.9
2017-07-09T01:12:37.403Z,974.9
2017-07-09T01:13:39.640Z,974.8
2017-07-09T01:14:41.853Z,974.8
2017-07-09T01:15:44.123Z,974.9
2017-07-09T01:16:46.376Z,974.9
2017-07-09T01:17:48.651Z,974.9
2017-07-09T01:18:50.974Z,974.9
2017-07-09T01:19:53.243Z,974.9
2017-07-09T01:20:55.527Z,974.9
2017-07-09T01:21:57.857Z,974.9
2017-07-09T01:23:00.074Z,974.9
2017-07-09T01:24:02.339Z,974.8
2017-07-09T01:25:04.452Z,974.8
2017-07-09T01:26:06.719Z,974.8
2017-07-09T01:27:08.967Z,974.8
2017-07-09T01:28:11.176Z,974.8
2017-07-09T01:29:13.459Z,974.8
2017-07-09T01:30:15.713Z,974.8
2017-07-09T01:31:18.119Z,974.8
2017-07-09T01:32:20.442Z,974.8
2017-07-09T01:33:22.824Z,974.8
2017-07-09T01:34:25.093Z,974.8
2017-07-09T01:35:27.341Z,974.8
2017-07-09T01:36:29.597Z,974.7
2017-07-09T01:37:31.941Z,974.7
2017-07-09T01:38:34.163Z,974.7
2017-07-09T01:39:36.588Z,974.7
2017-07-09T01:40:38.867Z,974.7
2017-07-09T01:41:41.053Z,974.7
2017-07-09T01:42:43.326Z,974.7
2017-07-09T01:43:45.653Z,974.7
2017-07-09T01:44:47.770Z,974.7
2017-07-09T01:45:49.999Z,974.7
2017-07-09T01:46:52.286Z,974.7
2017-07-09T01:47:54.613Z,974.7
2017-07-09T01:48:56.956Z,974.7
2017-07-09T01:49:59.085Z,974.7
2017-07-09T01:51:01.332Z,974.7
2017-07-09T01:52:03.458Z,974.7
2017-07-09T01:53:05.726Z,974.6
2017-07-09T01:54:08.028Z,974.6
2017-07-09T01:55:10.382Z,974.6
2017-07-09T01:56:12.708Z,974.5
2017-07-09T01:57:14.877Z,974.5
2017-07-09T01:58:17.187Z,974.5
2017-07-09T01:59:19.490Z,974.5
2017-07-09T02:00:21.816Z,974.5
2017-07-09T02:01:24.008Z,974.5
2017-07-09T02:02:26.339Z,974.5
2017-07-09T02:03:28.733Z,974.5
2017-07-09T02:04:31.082Z,974.5
2017-07-09T02:05:33.365Z,974.5
2017-07-09T02:06:35.647Z,974.5
2017-07-09T02:07:37.931Z,974.5
2017-07-09T02:08:40.079Z,974.4
2017-07-09T02:09:42.343Z,974.4
2017-07-09T02:10:44.663Z,974.5
2017-07-09T02:11:46.830Z,974.5
2017-07-09T02:12:49.093Z,974.6
2017-07-09T02:13:51.446Z,974.6
2017-07-09T02:14:53.764Z,974.5
2017-07-09T02:15:56.048Z,974.6
2017-07-09T02:16:58.284Z,974.6
2017-07-09T02:18:00.533Z,974.5
2017-07-09T02:19:02.846Z,974.5
2017-07-09T02:20:05.117Z,974.6
2017-07-09T02:21:07.347Z,974.6
2017-07-09T02:22:09.520Z,974.6
2017-07-09T02:23:11.759Z,974.7
2017-07-09T02:24:13.965Z,974.7
2017-07-09T02:25:16.253Z,974.7
2017-07-09T02:26:18.483Z,974.6
2017-07-09T02:27:20.800Z,974.7
2017-07-09T02:28:23.098Z,974.7
2017-07-09T02:29:25.386Z,974.8
2017-07-09T02:30:27.675Z,974.7
2017-07-09T02:31:29.929Z,974.7
2017-07-09T02:32:32.123Z,974.7
2017-07-09T02:33:34.394Z,974.7
2017-07-09T02:34:36.597Z,974.7
2017-07-09T02:35:38.953Z,974.7
2017-07-09T02:36:41.233Z,974.7
2017-07-09T02:37:43.357Z,974.7
2017-07-09T02:38:45.729Z,974.7
2017-07-09T02:39:48.004Z,974.7
2017-07-09T02:40:50.348Z,974.7
2017-07-09T02:41:52.479Z,974.7
2017-07-09T02:42:54.767Z,974.8
2017-07-09T02:43:57.077Z,974.8
2017-07-09T02:44:59.416Z,974.8
2017-07-09T02:46:01.800Z,974.8
2017-07-09T02:47:04.115Z,974.8
2017-07-09T02:48:06.379Z,974.7
2017-07-09T02:49:08.745Z,974.7
2017-07-09T02:50:11.002Z,974.7
2017-07-09T02:51:13.257Z,974.7
2017-07-09T02:52:15.498Z,974.8
2017-07-09T02:53:17.742Z,974.8
2017-07-09T02:54:20.085Z,974.8
2017-07-09T02:55:22.322Z,974.8
2017-07-09T02:56:24.650Z,974.8
2017-07-09T02:57:26.913Z,974.8
2017-07-09T02:58:29.174Z,974.8
2017-07-09T02:59:31.523Z,974.8
2017-07-09T03:00:33.714Z,974.8
2017-07-09T03:01:35.958Z,974.7
2017-07-09T03:02:38.261Z,974.8
2017-07-09T03:03:40.459Z,974.8
2017-07-09T03:04:42.540Z,974.8
2017-07-09T03:05:44.907Z,974.8
2017-07-09T03:06:47.102Z,974.8
2017-07-09T03:07:49.451Z,974.8
2017-07-09T03:08:51.818Z,974.8
2017-07-09T03:09:54.010Z,974.9
2017-07-09T03:10:56.356Z,974.9
2017-07-09T03:11:58.551Z,974.9
2017-07-09T03:13:00.804Z,974.9
2017-07-09T03:14:03.036Z,974.9
2017-07-09T03:15:05.318Z,974.9
2017-07-09T03:16:07.621Z,974.9
2017-07-09T03:17:09.992Z,974.9
2017-07-09T03:18:12.114Z,974.9
2017-07-09T03:19:14.448Z,974.9
2017-07-09T03:20:16.778Z,974.9
2017-07-09T03:21:18.998Z,974.9
2017-07-09T03:22:21.115Z,974.9
2017-07-09T03:23:23.355Z,974.8
2017-07-09T03:24:25.660Z,974.9
2017-07-09T03:25:27.922Z,974.9
2017-07-09T03:26:30.229Z,974.9
2017-07-09T03:27:32.441Z,974.9
2017-07-09T03:28:34.609Z,974.9
2017-07-09T03:29:36.938Z,974.9
2017-07-09T03:30:39.212Z,974.9
2017-07-09T03:31:41.611Z,974.9
2017-07-09T03:32:43.989Z,974.9
2017-07-09T03:33:46.425Z,974.9
2017-07-09T03:34:48.691Z,974.8
2017-07-09T03:35:50.969Z,974.8
2017-07-09T03:36:53.255Z,974.8
2017-07-09T03:37:55.650Z,974.8
2017-07-09T03:38:58.081Z,974.8
2017-07-09T03:40:00.555Z,974.8
2017-07-09T03:41:03.022Z,974.8
2017-07-09T03:42:05.499Z,974.8
2017-07-09T03:43:07.809Z,974.9
2017-07-09T03:44:10.174Z,974.9
2017-07-09T03:45:12.528Z,974.9
2017-07-09T03:46:14.970Z,974.8
2017-07-09T03:47:17.370Z,974.8
2017-07-09T03:48:19.698Z,974.9
2017-07-09T03:49:22.057Z,974.8
2017-07-09T03:50:24.333Z,974.9
2017-07-09T03:51:26.668Z,974.8
2017-07-09T03:52:29.038Z,974.8
2017-07-09T03:53:31.321Z,974.8
2017-07-09T03:54:33.723Z,974.8
2017-07-09T03:55:36.077Z,974.8
2017-07-09T03:56:38.515Z,974.9
2017-07-09T03:57:40.938Z,974.8
2017-07-09T03:58:43.340Z,974.9
2017-07-09T03:59:45.579Z,974.9
2017-07-09T04:00:48.005Z,974.9
2017-07-09T04:01:50.292Z,974.9
2017-07-09T04:02:52.683Z,975.0
2017-07-09T04:03:55.030Z,974.9
2017-07-09T04:04:57.350Z,974.9
2017-07-09T04:05:59.626Z,974.9
2017-07-09T04:07:01.983Z,974.9
2017-07-09T04:08:04.243Z,974.9
2017-07-09T04:09:06.665Z,974.9
2017-07-09T04:10:09.018Z,974.9
2017-07-09T04:11:11.385Z,974.9
2017-07-09T04:12:13.700Z,974.9
2017-07-09T04:13:15.857Z,975.0
2017-07-09T04:15:27.854Z,974.9
2017-07-09T04:16:29.455Z,974.9
2017-07-09T04:17:31.073Z,974.9
2017-07-09T04:18:32.705Z,974.9
2017-07-09T04:19:34.344Z,974.9
2017-07-09T04:20:35.938Z,974.9
2017-07-09T04:21:37.873Z,974.9
2017-07-09T04:22:39.513Z,974.9
2017-07-09T04:23:42.571Z,974.9
2017-07-09T04:24:44.206Z,974.9
2017-07-09T04:25:45.808Z,975.0
2017-07-09T04:26:47.436Z,975.0
2017-07-09T04:27:49.056Z,975.0
2017-07-09T04:28:50.707Z,975.0
2017-07-09T04:29:52.527Z,975.0
2017-07-09T04:30:54.169Z,975.0
2017-07-09T04:31:55.957Z,975.0
2017-07-09T04:32:57.678Z,975.0
2017-07-09T04:33:59.557Z,975.0
2017-07-09T04:35:01.404Z,974.9
2017-07-09T04:36:03.032Z,974.9
2017-07-09T04:37:04.657Z,974.9
2017-07-09T04:38:06.275Z,974.8
2017-07-09T04:39:07.907Z,974.9
2017-07-09T04:40:09.527Z,974.9
2017-07-09T04:41:13.105Z,974.9
2017-07-09T04:42:14.708Z,974.8
2017-07-09T04:43:16.327Z,974.9
2017-07-09T04:44:17.950Z,974.9
2017-07-09T04:45:19.592Z,974.8
2017-07-09T04:46:21.435Z,974.8
2017-07-09T04:47:25.033Z,974.8
2017-07-09T04:48:26.653Z,974.8
2017-07-09T04:49:28.281Z,974.8
2017-07-09T04:50:30.797Z,974.8
2017-07-09T04:51:33.234Z,974.8
2017-07-09T04:52:34.847Z,974.8
2017-07-09T04:53:38.989Z,974.8
2017-07-09T04:54:40.838Z,974.8
2017-07-09T04:55:42.669Z,974.8
2017-07-09T04:56:44.272Z,974.9
2017-07-09T04:57:45.924Z,974.9
2017-07-09T04:58:47.525Z,974.9
2017-07-09T04:59:50.375Z,974.9
2017-07-09T05:00:51.943Z,974.9
2017-07-09T05:01:53.590Z,974.9
2017-07-09T05:02:55.219Z,974.8
2017-07-09T05:03:56.834Z,974.8
2017-07-09T05:04:58.459Z,974.8
2017-07-09T05:06:01.000Z,974.8
2017-07-09T05:07:02.628Z,974.9
2017-07-09T05:08:04.270Z,974.9
2017-07-09T05:09:06.077Z,974.9
2017-07-09T05:10:07.728Z,974.9
2017-07-09T05:11:11.497Z,974.9
2017-07-09T05:12:13.144Z,974.9
2017-07-09T05:13:14.742Z,974.9
2017-07-09T05:14:16.399Z,974.9
2017-07-09T05:15:17.996Z,974.9
2017-07-09T05:16:21.846Z,974.9
2017-07-09T05:17:23.740Z,974.9
2017-07-09T05:18:25.572Z,974.9
2017-07-09T05:19:27.194Z,974.9
2017-07-09T05:20:28.805Z,974.9
2017-07-09T05:21:30.456Z,974.9
2017-07-09T05:22:32.081Z,974.9
2017-07-09T05:23:33.712Z,974.9
2017-07-09T05:24:35.346Z,974.9
2017-07-09T05:25:36.967Z,974.9
2017-07-09T05:26:38.570Z,974.9
2017-07-09T05:27:40.223Z,974.9
2017-07-09T05:28:43.322Z,974.9
2017-07-09T05:29:44.943Z,974.9
2017-07-09T05:30:46.572Z,974.9
2017-07-09T05:31:48.415Z,974.9
2017-07-09T05:32:50.256Z,974.9
2017-07-09T05:33:52.070Z,974.9
2017-07-09T05:34:53.706Z,974.9
2017-07-09T05:35:55.316Z,974.9
2017-07-09T05:36:58.474Z,974.9
2017-07-09T05:38:00.070Z,974.9
2017-07-09T05:39:01.713Z,974.9
2017-07-09T05:40:03.340Z,974.9
2017-07-09T05:41:04.959Z,974.9
2017-07-09T05:42:06.568Z,974.9
2017-07-09T05:43:08.193Z,974.9
2017-07-09T05:44:09.832Z,974.9
2017-07-09T05:45:13.121Z,974.9
2017-07-09T05:46:14.956Z,974.8
2017-07-09T05:47:16.561Z,974.9
2017-07-09T05:48:18.213Z,974.9
2017-07-09T05:49:21.763Z,974.9
2017-07-09T05:50:23.386Z,974.9
2017-07-09T05:51:25.322Z,974.8
2017-07-09T05:52:26.948Z,974.8
2017-07-09T05:53:28.593Z,974.9
2017-07-09T05:54:30.218Z,974.8
2017-07-09T05:55:33.611Z,974.8
2017-07-09T05:56:37.502Z,974.9
2017-07-09T05:57:39.124Z,974.8
2017-07-09T05:58:40.772Z,974.8
2017-07-09T05:59:42.385Z,974.9
2017-07-09T06:00:43.994Z,974.9
2017-07-09T06:01:45.609Z,974.8
2017-07-09T06:02:47.234Z,974.9
2017-07-09T06:03:48.859Z,974.8
2017-07-09T06:04:50.484Z,974.9
2017-07-09T06:05:52.100Z,974.9
2017-07-09T06:06:53.703Z,974.9
2017-07-09T06:07:55.320Z,974.9
2017-07-09T06:08:56.950Z,974.9
2017-07-09T06:09:58.578Z,974.9
2017-07-09T06:11:00.203Z,974.9
2017-07-09T06:12:02.036Z,975.0
2017-07-09T06:13:03.664Z,974.9
2017-07-09T06:14:05.271Z,974.9
2017-07-09T06:15:07.173Z,974.9
2017-07-09T06:16:08.968Z,974.9
2017-07-09T06:17:10.625Z,974.9
2017-07-09T06:18:12.235Z,974.8
2017-07-09T06:19:13.853Z,974.9
2017-07-09T06:20:15.474Z,974.9
2017-07-09T06:21:17.102Z,975.0
2017-07-09T06:22:18.719Z,975.0
2017-07-09T06:23:20.370Z,974.9
2017-07-09T06:24:21.992Z,974.9
2017-07-09T06:25:23.621Z,974.9
2017-07-09T06:26:25.219Z,975.0
2017-07-09T06:27:26.865Z,975.0
2017-07-09T06:28:28.495Z,974.9
2017-07-09T06:29:30.094Z,974.9
2017-07-09T06:30:31.942Z,974.9
2017-07-09T06:31:35.618Z,974.8
2017-07-09T06:32:36.051Z,974.9
2017-07-09T06:33:37.698Z,974.9
2017-07-09T06:34:39.526Z,974.9
2017-07-09T06:35:41.425Z,974.9
2017-07-09T06:36:43.265Z,974.9
2017-07-09T06:37:45.086Z,974.9
2017-07-09T06:38:46.717Z,974.8
2017-07-09T06:39:48.366Z,974.8
2017-07-09T06:40:51.879Z,974.9
2017-07-09T06:41:53.507Z,974.8
2017-07-09T06:42:55.128Z,974.9
2017-07-09T06:43:56.959Z,974.9
2017-07-09T06:44:58.600Z,974.9
2017-07-09T06:46:00.198Z,974.9
2017-07-09T06:47:02.019Z,974.9
2017-07-09T06:48:03.893Z,974.9
2017-07-09T06:49:05.537Z,974.9
2017-07-09T06:50:07.155Z,974.9
2017-07-09T06:51:08.766Z,974.9
2017-07-09T06:52:11.338Z,974.9
2017-07-09T06:53:12.961Z,974.9
2017-07-09T06:54:14.593Z,974.9
2017-07-09T06:55:16.212Z,974.9
2017-07-09T06:56:18.404Z,975.0
2017-07-09T06:57:19.959Z,975.0
2017-07-09T06:58:21.574Z,974.9
2017-07-09T06:59:23.201Z,974.9
2017-07-09T07:00:24.832Z,974.9
2017-07-09T07:01:26.749Z,974.9
2017-07-09T07:02:28.348Z,974.9
2017-07-09T07:03:30.210Z,974.9
2017-07-09T07:04:33.777Z,975.0
2017-07-09T07:05:35.403Z,975.0
2017-07-09T07:06:37.033Z,975.0
2017-07-09T07:07:40.623Z,975.0
2017-07-09T07:08:42.253Z,975.0
2017-07-09T07:09:43.885Z,975.0
2017-07-09T07:10:45.521Z,975.0
2017-07-09T07:11:47.144Z,975.0
2017-07-09T07:12:50.971Z,975.0
2017-07-09T07:13:52.853Z,975.0
2017-07-09T07:14:54.667Z,975.0
2017-07-09T07:15:56.480Z,975.0
2017-07-09T07:16:58.130Z,975.0
2017-07-09T07:17:59.730Z,975.0
2017-07-09T07:19:01.383Z,975.0
2017-07-09T07:20:03.005Z,975.0
2017-07-09T07:21:04.635Z,975.1
2017-07-09T07:22:06.269Z,975.1
2017-07-09T07:23:07.881Z,975.1
2017-07-09T07:24:09.521Z,975.1
2017-07-09T07:25:11.128Z,975.1
2017-07-09T07:26:12.976Z,975.0
2017-07-09T07:27:14.628Z,975.0
2017-07-09T07:28:16.230Z,975.0
2017-07-09T07:29:18.090Z,975.0
2017-07-09T07:30:19.965Z,975.0
2017-07-09T07:31:22.530Z,975.0
2017-07-09T07:32:24.166Z,975.0
2017-07-09T07:33:25.816Z,975.1
2017-07-09T07:34:27.427Z,975.0
2017-07-09T07:35:29.077Z,975.0
2017-07-09T07:36:32.618Z,975.0
2017-07-09T07:37:34.270Z,975.2
2017-07-09T07:38:35.900Z,975.1
2017-07-09T07:39:37.501Z,975.1
2017-07-09T07:40:39.148Z,975.0
2017-07-09T07:41:40.781Z,975.0
2017-07-09T07:42:44.601Z,975.0
2017-07-09T07:43:46.226Z,975.0
2017-07-09T07:44:47.856Z,975.0
2017-07-09T07:45:51.431Z,975.0
2017-07-09T07:46:53.071Z,974.9
2017-07-09T07:47:54.692Z,974.9
2017-07-09T07:48:56.536Z,974.9
2017-07-09T07:49:58.152Z,975.0
2017-07-09T07:50:59.773Z,975.0
2017-07-09T07:52:01.631Z,975.1
2017-07-09T07:53:03.521Z,975.9
2017-07-09T07:54:05.369Z,975.1
2017-07-09T07:55:07.216Z,975.1
2017-07-09T07:56:08.833Z,975.0
2017-07-09T07:57:10.465Z,975.0
2017-07-09T07:58:12.103Z,974.9
2017-07-09T07:59:13.703Z,974.9
2017-07-09T08:00:15.350Z,974.9
2017-07-09T08:01:16.960Z,974.9
2017-07-09T08:02:18.584Z,974.9
2017-07-09T08:03:22.174Z,974.9
2017-07-09T08:04:23.823Z,974.9
2017-07-09T08:05:25.447Z,975.4
2017-07-09T08:06:27.062Z,975.1
2017-07-09T08:07:28.676Z,975.0
2017-07-09T08:08:30.292Z,974.9
2017-07-09T08:09:31.927Z,974.9
2017-07-09T08:10:33.530Z,974.9
2017-07-09T08:11:35.201Z,974.9
2017-07-09T08:12:37.059Z,974.9
2017-07-09T08:13:39.048Z,974.8
2017-07-09T08:14:40.897Z,974.8
2017-07-09T08:15:42.739Z,974.8
2017-07-09T08:16:44.352Z,974.8
2017-07-09T08:17:45.999Z,974.8
2017-07-09T08:18:47.625Z,974.8
2017-07-09T08:19:49.255Z,974.8
2017-07-09T08:20:50.870Z,974.8
2017-07-09T08:21:52.521Z,974.9
2017-07-09T08:22:54.118Z,975.1
2017-07-09T08:23:55.743Z,975.4
2017-07-09T08:24:57.380Z,975.0
2017-07-09T08:25:59.007Z,975.4
2017-07-09T08:27:00.657Z,975.0
2017-07-09T08:28:02.288Z,975.0
2017-07-09T08:29:03.894Z,975.5
2017-07-09T08:30:05.533Z,975.0
2017-07-09T08:31:07.183Z,974.8
2017-07-09T08:32:11.005Z,974.9
2017-07-09T08:33:12.769Z,975.2
2017-07-09T08:34:14.566Z,975.2
2017-07-09T08:35:16.197Z,974.7
2017-07-09T08:36:17.847Z,974.7
2017-07-09T08:37:19.459Z,974.7
2017-07-09T08:38:21.094Z,974.8
2017-07-09T08:39:22.750Z,974.7
2017-07-09T08:40:24.373Z,975.2
2017-07-09T08:41:25.988Z,975.3
2017-07-09T08:42:27.649Z,974.8
2017-07-09T08:43:29.271Z,974.8
2017-07-09T08:44:31.851Z,974.7
2017-07-09T08:45:33.481Z,975.0
2017-07-09T08:46:35.118Z,975.5
2017-07-09T08:47:36.736Z,974.7
2017-07-09T08:48:38.599Z,974.7
2017-07-09T08:49:40.250Z,974.6
2017-07-09T08:50:41.918Z,974.6
2017-07-09T08:51:43.445Z,974.6
2017-07-09T08:52:45.071Z,974.7
2017-07-09T08:53:46.707Z,974.7
2017-07-09T08:54:48.335Z,974.7
2017-07-09T08:55:49.995Z,974.8
2017-07-09T08:56:53.593Z,975.0
2017-07-09T08:57:55.242Z,974.8
2017-07-09T08:58:56.850Z,974.7
2017-07-09T08:59:58.737Z,974.6
2017-07-09T09:01:00.818Z,974.6
2017-07-09T09:02:02.454Z,974.6
2017-07-09T09:03:04.079Z,974.6
2017-07-09T09:04:05.928Z,974.7
2017-07-09T09:05:07.842Z,974.8
2017-07-09T09:06:09.675Z,974.7
2017-07-09T09:07:11.328Z,974.7
2017-07-09T09:08:12.968Z,974.7
2017-07-09T09:09:14.585Z,974.7
2017-07-09T09:10:16.211Z,975.4
2017-07-09T09:11:17.872Z,975.0
2017-07-09T09:12:19.491Z,975.5
2017-07-09T09:13:22.052Z,975.7
2017-07-09T09:14:23.701Z,975.5
2017-07-09T09:15:25.319Z,974.8
2017-07-09T09:16:26.965Z,974.8
2017-07-09T09:17:28.822Z,974.8
2017-07-09T09:18:30.448Z,974.7
2017-07-09T09:19:32.283Z,974.6
2017-07-09T09:20:34.157Z,974.6
2017-07-09T09:21:36.545Z,974.5
2017-07-09T09:22:38.315Z,974.6
2017-07-09T09:23:39.978Z,974.6
2017-07-09T09:24:43.581Z,974.6
2017-07-09T09:25:45.200Z,974.6
2017-07-09T09:26:46.833Z,974.6
2017-07-09T09:27:48.460Z,974.6
2017-07-09T09:28:50.120Z,974.6
2017-07-09T09:29:51.746Z,974.6
2017-07-09T09:30:53.360Z,974.6
2017-07-09T09:31:55.022Z,974.7
2017-07-09T09:32:56.844Z,975.5
2017-07-09T09:33:58.490Z,975.3
2017-07-09T09:35:01.057Z,974.8
2017-07-09T09:36:03.532Z,975.7
2017-07-09T09:37:05.154Z,975.6
2017-07-09T09:38:06.746Z,974.8
2017-07-09T09:39:08.365Z,974.8
2017-07-09T09:40:10.022Z,975.7
2017-07-09T09:41:11.700Z,975.8
2017-07-09T09:42:13.237Z,975.8
2017-07-09T09:43:14.896Z,975.0
2017-07-09T09:44:16.516Z,975.8
2017-07-09T09:45:18.134Z,975.7
2017-07-09T09:46:20.726Z,975.8
2017-07-09T09:47:22.357Z,975.7
2017-07-09T09:48:23.980Z,975.8
2017-07-09T09:49:25.619Z,976.0
2017-07-09T09:50:27.483Z,975.9
2017-07-09T09:51:29.745Z,974.6
2017-07-09T09:52:31.606Z,974.6
2017-07-09T09:53:33.358Z,974.4
2017-07-09T09:54:35.130Z,974.5
2017-07-09T09:55:36.941Z,974.5
2017-07-09T09:56:38.564Z,974.5
2017-07-09T09:57:40.225Z,974.5
2017-07-09T09:58:41.830Z,974.4
2017-07-09T09:59:43.470Z,974.4
2017-07-09T10:00:45.115Z,974.4
2017-07-09T10:01:46.739Z,974.4
2017-07-09T10:02:48.397Z,974.4
2017-07-09T10:03:50.013Z,974.4
2017-07-09T10:04:51.647Z,974.4
2017-07-09T10:05:53.509Z,974.4
2017-07-09T10:06:55.608Z,974.4
2017-07-09T10:07:57.462Z,974.4
2017-07-09T10:08:59.273Z,974.4
2017-07-09T10:10:00.924Z,974.5
2017-07-09T10:11:02.558Z,974.3
2017-07-09T10:12:04.408Z,974.3
2017-07-09T10:13:06.046Z,974.3
2017-07-09T10:14:07.677Z,974.4
2017-07-09T10:15:09.292Z,974.3
2017-07-09T10:16:12.557Z,974.3
2017-07-09T10:17:14.168Z,974.3
2017-07-09T10:18:15.793Z,974.3
2017-07-09T10:19:17.426Z,974.3
2017-07-09T10:20:19.063Z,974.3
2017-07-09T10:21:20.709Z,974.2
2017-07-09T10:22:22.556Z,974.3
2017-07-09T10:23:24.512Z,974.6
2017-07-09T10:24:26.379Z,974.6
2017-07-09T10:25:27.987Z,974.7
2017-07-09T10:26:29.646Z,974.6
2017-07-09T10:27:31.252Z,974.9
2017-07-09T10:28:32.909Z,974.6
2017-07-09T10:29:34.542Z,974.8
2017-07-09T10:30:36.181Z,974.8
2017-07-09T10:31:37.810Z,974.5
2017-07-09T10:32:39.445Z,974.4
2017-07-09T10:33:41.080Z,974.4
2017-07-09T10:34:42.686Z,974.7
2017-07-09T10:35:44.339Z,974.8
2017-07-09T10:36:45.975Z,974.5
2017-07-09T10:37:47.611Z,974.7
2017-07-09T10:38:49.251Z,974.7
2017-07-09T10:39:50.879Z,974.6
2017-07-09T10:40:52.517Z,974.3
2017-07-09T10:41:54.149Z,974.2
2017-07-09T10:42:55.974Z,974.2
2017-07-09T10:43:58.000Z,974.2
2017-07-09T10:44:59.863Z,974.2
2017-07-09T10:46:01.667Z,974.1
2017-07-09T10:47:03.324Z,974.1
2017-07-09T10:48:04.932Z,974.2
2017-07-09T10:49:06.576Z,974.2
2017-07-09T10:50:08.212Z,974.3
2017-07-09T10:51:11.723Z,974.2
2017-07-09T10:52:13.355Z,974.2
2017-07-09T10:53:15.017Z,974.2
2017-07-09T10:54:16.643Z,974.2
2017-07-09T10:55:18.464Z,974.1
2017-07-09T10:56:21.782Z,974.2
2017-07-09T10:57:23.423Z,974.2
2017-07-09T10:58:25.068Z,974.1
2017-07-09T10:59:26.714Z,975.1
2017-07-09T11:00:28.334Z,975.4
2017-07-09T11:01:29.982Z,974.9
2017-07-09T11:02:31.632Z,974.1
2017-07-09T11:03:33.254Z,974.1
2017-07-09T11:04:34.898Z,974.1
2017-07-09T11:05:38.085Z,974.8
2017-07-09T11:06:40.933Z,975.0
2017-07-09T11:07:42.580Z,974.9
2017-07-09T11:08:44.414Z,974.4
2017-07-09T11:09:47.153Z,974.3
2017-07-09T11:10:48.775Z,974.4
2017-07-09T11:11:50.413Z,974.2
2017-07-09T11:12:52.022Z,974.2
2017-07-09T11:13:53.684Z,974.2
2017-07-09T11:14:55.317Z,974.4
2017-07-09T11:15:56.918Z,974.4
2017-07-09T11:16:58.572Z,974.2
2017-07-09T11:18:00.179Z,974.2
2017-07-09T11:19:01.819Z,974.2
2017-07-09T11:20:03.463Z,974.1
2017-07-09T11:21:05.083Z,974.0
2017-07-09T11:22:06.701Z,974.0
2017-07-09T11:23:08.350Z,974.1
2017-07-09T11:24:09.969Z,974.1
2017-07-09T11:25:11.627Z,974.1
2017-07-09T11:26:13.234Z,974.1
2017-07-09T11:27:14.865Z,974.1
2017-07-09T11:28:16.495Z,974.0
2017-07-09T11:29:18.122Z,974.2
2017-07-09T11:30:19.779Z,974.3
2017-07-09T11:31:21.386Z,974.3
2017-07-09T11:32:23.043Z,974.3
2017-07-09T11:33:24.731Z,974.2
2017-07-09T11:34:26.346Z,974.2
2017-07-09T11:35:28.001Z,974.3
2017-07-09T11:36:29.805Z,974.3
2017-07-09T11:37:31.460Z,974.2
2017-07-09T11:38:33.092Z,974.3
2017-07-09T11:39:34.753Z,974.3
2017-07-09T11:40:36.382Z,974.3
2017-07-09T11:41:39.232Z,974.1
2017-07-09T11:42:40.893Z,974.2
2017-07-09T11:43:42.499Z,974.2
2017-07-09T11:44:44.141Z,973.9
2017-07-09T11:45:45.779Z,973.9
2017-07-09T11:46:47.382Z,973.9
2017-07-09T11:47:49.036Z,974.0
2017-07-09T11:48:50.871Z,973.9
2017-07-09T11:49:53.004Z,974.0
2017-07-09T11:50:54.853Z,973.9
2017-07-09T11:51:56.710Z,973.9
2017-07-09T11:52:58.262Z,973.9
2017-07-09T11:53:59.913Z,973.8
2017-07-09T11:55:03.054Z,973.8
2017-07-09T11:56:04.691Z,973.8
2017-07-09T11:57:06.318Z,973.8
2017-07-09T11:58:08.025Z,973.9
2017-07-09T11:59:09.556Z,973.8
2017-07-09T12:00:11.199Z,973.8
2017-07-09T12:01:15.013Z,973.8
2017-07-09T12:02:16.766Z,973.9
2017-07-09T12:03:18.657Z,974.0
2017-07-09T12:04:20.492Z,973.9
2017-07-09T12:05:22.115Z,973.8
2017-07-09T12:06:23.774Z,973.9
2017-07-09T12:07:25.379Z,973.9
2017-07-09T12:08:27.007Z,973.8
2017-07-09T12:09:28.661Z,973.8
2017-07-09T12:10:32.254Z,973.9
2017-07-09T12:11:33.973Z,974.0
2017-07-09T12:12:35.555Z,973.8
2017-07-09T12:13:37.186Z,973.9
2017-07-09T12:14:38.815Z,973.8
2017-07-09T12:15:40.424Z,974.0
2017-07-09T12:16:43.292Z,973.9
2017-07-09T12:17:45.035Z,974.0
2017-07-09T12:18:46.818Z,974.0
2017-07-09T12:19:48.642Z,974.0
2017-07-09T12:20:50.244Z,974.0
2017-07-09T12:21:51.873Z,974.0
2017-07-09T12:22:53.520Z,973.9
2017-07-09T12:23:55.141Z,974.0
2017-07-09T12:24:57.712Z,973.9
2017-07-09T12:25:59.359Z,973.8
2017-07-09T12:27:00.989Z,973.8
2017-07-09T12:28:02.624Z,973.8
2017-07-09T12:29:04.242Z,973.7
2017-07-09T12:30:05.879Z,973.7
2017-07-09T12:31:07.490Z,973.6
2017-07-09T12:32:11.286Z,973.7
2017-07-09T12:33:12.923Z,973.7
2017-07-09T12:34:14.563Z,973.8
2017-07-09T12:35:16.219Z,973.7
2017-07-09T12:36:17.849Z,973.6
2017-07-09T12:37:19.453Z,973.6
2017-07-09T12:38:22.605Z,973.6
2017-07-09T12:39:24.239Z,973.6
2017-07-09T12:40:25.842Z,973.6
2017-07-09T12:41:28.692Z,973.6
2017-07-09T12:42:30.514Z,973.8
2017-07-09T12:43:32.599Z,973.6
2017-07-09T12:44:34.466Z,973.7
2017-07-09T12:45:37.590Z,973.6
2017-07-09T12:46:39.235Z,973.5
2017-07-09T12:47:40.870Z,973.4
2017-07-09T12:48:42.498Z,973.4
2017-07-09T12:49:44.122Z,973.4
2017-07-09T12:50:45.733Z,973.4
2017-07-09T12:51:47.353Z,973.4
2017-07-09T12:52:49.012Z,973.4
2017-07-09T12:53:50.609Z,973.4
2017-07-09T12:54:52.273Z,973.4
2017-07-09T12:55:53.896Z,973.3
2017-07-09T12:56:55.520Z,973.3
2017-07-09T12:57:57.132Z,973.3
2017-07-09T12:58:58.756Z,973.3
2017-07-09T13:00:00.404Z,973.3
2017-07-09T13:01:02.015Z,973.3
2017-07-09T13:02:03.677Z,973.2
2017-07-09T13:03:05.293Z,973.2
2017-07-09T13:04:06.910Z,973.2
2017-07-09T13:05:08.566Z,973.2
2017-07-09T13:06:10.189Z,973.2
2017-07-09T13:07:11.800Z,973.2
2017-07-09T13:08:13.431Z,973.2
2017-07-09T13:09:15.086Z,973.2
2017-07-09T13:10:16.700Z,973.2
2017-07-09T13:11:18.309Z,973.2
2017-07-09T13:12:19.936Z,973.3
2017-07-09T13:13:23.394Z,973.3
2017-07-09T13:14:25.010Z,973.3
2017-07-09T13:15:26.647Z,973.6
2017-07-09T13:16:28.303Z,973.6
2017-07-09T13:17:29.880Z,973.6
2017-07-09T13:18:31.520Z,973.6
2017-07-09T13:19:33.136Z,973.5